Time;durP1;ratioP1;P1;durP2;ratioP2;P2;SDS_P1;SDS_P2;PMS_P1;PMS_P2;Temp;Humidity;BMP_temperature;BMP_pressure;BME280_temperature;BME280_humidity;BME280_pressure;Samples;Min_cycle;Max_cycle;Signal;HPM_P1;HPM_P2
2022/07/03 00:01:34;;;;;;;3.97;1.40;;;18.60;99.90;;;;;;5048592;28;20040;-68
2022/07/03 00:04:00;;;;;;;4.50;1.48;;;18.70;99.90;;;;;;5032589;28;20132;-67
2022/07/03 00:06:27;;;;;;;3.22;1.30;;;18.70;99.90;;;;;;5033671;28;20125;-67
2022/07/03 00:08:53;;;;;;;4.68;1.40;;;18.70;99.90;;;;;;5026498;28;20098;-68
2022/07/03 00:11:19;;;;;;;3.83;1.27;;;18.70;99.90;;;;;;5053701;28;20055;-68
2022/07/03 00:13:45;;;;;;;3.75;1.40;;;18.70;99.90;;;;;;5036666;28;20049;-68
2022/07/03 00:16:11;;;;;;;3.50;1.40;;;18.70;99.90;;;;;;5039774;28;20049;-69
2022/07/03 00:18:37;;;;;;;4.40;1.67;;;18.80;99.90;;;;;;5038797;28;20052;-69
2022/07/03 00:21:05;;;;;;;5.60;1.88;;;18.80;99.90;;;;;;5040018;28;20041;-69
2022/07/03 00:23:44;;;;;;;5.57;2.10;;;18.70;99.90;;;;;;5033591;28;20125;-68
2022/07/03 00:26:12;;;;;;;5.68;1.77;;;18.70;99.90;;;;;;5037777;28;20118;-69
2022/07/03 00:28:38;;;;;;;5.88;2.10;;;18.60;99.90;;;;;;5039647;28;20102;-68
2022/07/03 00:31:04;;;;;;;6.90;2.25;;;18.60;99.90;;;;;;5035095;28;20041;-67
2022/07/03 00:33:33;;;;;;;7.05;1.90;;;18.50;99.90;;;;;;5033241;28;20056;-69
2022/07/03 00:35:59;;;;;;;5.82;2.30;;;18.50;99.90;;;;;;5051344;28;20053;-67
2022/07/03 00:38:25;;;;;;;4.75;2.20;;;18.40;99.90;;;;;;5054188;28;20044;-67
2022/07/03 00:40:51;;;;;;;4.18;1.73;;;18.40;99.90;;;;;;5036733;28;20377;-69
2022/07/03 00:43:17;;;;;;;8.15;2.30;;;18.30;99.90;;;;;;5032836;28;20049;-68
2022/07/03 00:45:49;;;;;;;4.63;1.98;;;18.30;99.90;;;;;;5034382;28;20049;-68
2022/07/03 00:48:16;;;;;;;5.85;1.80;;;18.30;99.90;;;;;;5033293;28;20053;-69
2022/07/03 00:50:50;;;;;;;5.55;1.80;;;18.20;99.90;;;;;;5046450;28;20064;-70
2022/07/03 00:53:24;;;;;;;5.00;1.90;;;18.30;99.90;;;;;;5033265;28;20068;-70
2022/07/03 00:55:52;;;;;;;5.20;2.08;;;18.20;99.90;;;;;;5033129;28;20049;-68
2022/07/03 00:58:18;;;;;;;7.00;2.55;;;18.10;99.90;;;;;;5045485;28;20485;-68
2022/07/03 01:00:45;;;;;;;5.10;2.38;;;18.10;99.90;;;;;;5011101;28;20041;-68
2022/07/03 01:03:19;;;;;;;7.97;2.80;;;18.00;99.90;;;;;;5052331;28;20059;-68
2022/07/03 01:05:50;;;;;;;5.60;1.85;;;17.90;99.90;;;;;;5053065;28;20049;-68
2022/07/03 01:08:30;;;;;;;5.75;1.95;;;17.80;99.90;;;;;;5032561;28;20129;-67
2022/07/03 01:11:27;;;;;;;5.65;2.03;;;17.80;99.90;;;;;;5043847;28;20074;-67
2022/07/03 01:14:15;;;;;;;4.72;2.10;;;17.80;99.90;;;;;;5031405;28;20057;-68
2022/07/03 01:16:49;;;;;;;4.82;2.08;;;17.80;99.90;;;;;;5033020;28;20284;-68
2022/07/03 01:19:42;;;;;;;5.00;1.65;;;17.80;99.90;;;;;;5032194;28;20108;-69
2022/07/03 01:22:29;;;;;;;4.57;1.63;;;17.80;99.90;;;;;;5022859;28;20045;-70
2022/07/03 01:25:14;;;;;;;4.78;1.60;;;17.90;99.90;;;;;;5047101;28;20041;-70
2022/07/03 01:28:06;;;;;;;4.38;1.38;;;17.90;99.90;;;;;;5041126;28;20128;-69
2022/07/03 01:30:38;;;;;;;5.60;1.60;;;17.90;99.90;;;;;;5051297;28;20045;-68
2022/07/03 01:33:09;;;;;;;6.65;1.80;;;17.80;99.90;;;;;;5052110;28;20091;-68
2022/07/03 01:35:54;;;;;;;5.13;1.58;;;17.80;99.90;;;;;;5034677;28;20049;-68
2022/07/03 01:38:21;;;;;;;5.20;1.60;;;17.80;99.90;;;;;;5043635;28;20140;-69
2022/07/03 01:40:50;;;;;;;5.72;2.03;;;17.80;99.90;;;;;;5034119;28;20396;-68
2022/07/03 01:43:21;;;;;;;4.95;2.00;;;17.70;99.90;;;;;;5031422;28;20516;-68
2022/07/03 01:45:47;;;;;;;4.65;1.55;;;17.70;99.90;;;;;;5062511;28;20532;-68
2022/07/03 01:48:14;;;;;;;4.05;1.58;;;17.70;99.90;;;;;;5034694;28;20045;-68
2022/07/03 01:50:41;;;;;;;4.30;1.30;;;17.60;99.90;;;;;;5028037;28;20052;-68
2022/07/03 01:53:09;;;;;;;4.55;1.50;;;17.60;99.90;;;;;;5038173;28;20083;-68
2022/07/03 01:55:38;;;;;;;3.17;1.40;;;17.70;99.90;;;;;;5032087;28;20052;-68
2022/07/03 01:58:04;;;;;;;5.10;1.70;;;17.70;99.90;;;;;;5048830;28;20052;-69
2022/07/03 02:00:30;;;;;;;4.47;1.40;;;17.80;99.90;;;;;;5052992;28;20045;-69
2022/07/03 02:03:04;;;;;;;4.57;1.55;;;17.70;99.90;;;;;;5051990;28;20071;-68
2022/07/03 02:05:35;;;;;;;5.72;1.90;;;17.70;99.90;;;;;;5031728;28;20079;-69
2022/07/03 02:08:22;;;;;;;4.40;1.60;;;17.70;99.90;;;;;;5031212;28;20054;-68
2022/07/03 02:11:00;;;;;;;4.38;1.70;;;17.60;99.90;;;;;;5032956;28;20124;-68
2022/07/03 02:13:28;;;;;;;5.50;1.60;;;17.60;99.90;;;;;;5030582;28;20045;-69
2022/07/03 02:15:57;;;;;;;3.83;1.42;;;17.60;99.90;;;;;;5031402;28;20053;-68
2022/07/03 02:18:38;;;;;;;3.63;1.50;;;17.50;99.90;;;;;;5031294;28;20114;-68
2022/07/03 02:21:14;;;;;;;4.43;1.60;;;17.50;99.90;;;;;;5031950;28;20408;-69
2022/07/03 02:24:13;;;;;;;5.00;1.60;;;17.50;99.90;;;;;;5031232;28;20121;-69
2022/07/03 02:26:41;;;;;;;2.90;1.40;;;17.50;99.90;;;;;;5025603;28;20073;-69
2022/07/03 02:29:12;;;;;;;3.67;1.50;;;17.50;99.90;;;;;;5041826;28;20484;-69
2022/07/03 02:31:42;;;;;;;3.90;1.50;;;17.40;99.90;;;;;;5051336;28;20049;-69
2022/07/03 02:34:11;;;;;;;4.28;1.30;;;17.40;99.90;;;;;;5033524;28;20055;-69
2022/07/03 02:36:40;;;;;;;3.22;1.42;;;17.40;99.90;;;;;;5037729;28;20045;-69
2022/07/03 02:39:11;;;;;;;5.63;1.73;;;17.30;99.90;;;;;;5020505;28;20045;-69
2022/07/03 02:41:53;;;;;;;3.42;1.58;;;17.20;99.90;;;;;;5051245;28;20083;-70
2022/07/03 02:44:29;;;;;;;4.53;1.60;;;17.20;99.90;;;;;;5050455;28;20048;-69
2022/07/03 02:47:10;;;;;;;4.25;1.60;;;17.10;99.90;;;;;;5037123;28;20292;-69
2022/07/03 02:49:50;;;;;;;6.85;2.25;;;17.10;99.90;;;;;;5031563;28;20396;-68
2022/07/03 02:52:45;;;;;;;6.03;2.15;;;17.00;99.90;;;;;;5044597;28;20408;-68
2022/07/03 02:55:38;;;;;;;5.53;2.13;;;16.90;99.90;;;;;;5031113;28;20046;-69
2022/07/03 02:58:39;;;;;;;5.43;2.78;;;16.80;99.90;;;;;;5030463;28;20068;-70
2022/07/03 03:01:09;;;;;;;5.95;2.20;;;16.70;99.90;;;;;;4992269;28;20149;-71
2022/07/03 03:03:36;;;;;;;3.80;1.75;;;16.60;99.90;;;;;;5048375;28;20053;-71
2022/07/03 03:06:08;;;;;;;5.93;2.40;;;16.50;99.90;;;;;;5030493;28;20063;-71
2022/07/03 03:08:41;;;;;;;4.57;2.03;;;16.50;99.90;;;;;;5057369;28;20067;-71
2022/07/03 03:11:13;;;;;;;5.18;2.40;;;16.50;99.90;;;;;;5036694;28;20049;-71
2022/07/03 03:13:43;;;;;;;4.80;2.00;;;16.40;99.90;;;;;;5050028;28;20057;-71
2022/07/03 03:16:13;;;;;;;4.60;2.20;;;16.40;99.90;;;;;;5050160;28;20067;-70
2022/07/03 03:18:41;;;;;;;4.90;1.90;;;16.30;99.90;;;;;;5028666;28;20061;-71
2022/07/03 03:21:15;;;;;;;6.18;1.90;;;16.30;99.90;;;;;;5047123;28;20141;-71
2022/07/03 03:23:50;;;;;;;4.57;2.08;;;16.30;99.90;;;;;;5030833;28;20061;-71
2022/07/03 03:26:31;;;;;;;4.05;1.80;;;16.30;99.90;;;;;;5030566;28;20122;-72
2022/07/03 03:28:59;;;;;;;5.00;1.80;;;16.30;99.90;;;;;;5018544;28;20045;-73
2022/07/03 03:31:27;;;;;;;5.22;1.92;;;16.30;99.90;;;;;;5031037;28;20053;-72
2022/07/03 03:33:53;;;;;;;5.18;2.00;;;16.20;99.90;;;;;;5027029;28;20093;-72
2022/07/03 03:36:21;;;;;;;7.07;2.50;;;16.20;99.90;;;;;;5031014;28;20057;-71
2022/07/03 03:38:48;;;;;;;6.55;2.60;;;16.10;99.90;;;;;;5037221;28;20049;-71
2022/07/03 03:41:14;;;;;;;7.22;2.58;;;16.00;99.90;;;;;;5043788;28;20049;-71
2022/07/03 03:43:40;;;;;;;5.30;1.98;;;15.90;99.90;;;;;;5033660;28;20095;-71
2022/07/03 03:46:05;;;;;;;5.25;2.67;;;15.90;99.90;;;;;;5024118;28;20042;-71
2022/07/03 03:48:35;;;;;;;6.75;2.97;;;15.90;99.90;;;;;;5033666;28;20056;-71
2022/07/03 03:51:02;;;;;;;5.72;2.58;;;15.80;99.90;;;;;;5017658;28;20468;-70
2022/07/03 03:53:28;;;;;;;5.78;3.00;;;15.70;99.90;;;;;;5014906;28;20408;-71
2022/07/03 03:56:00;;;;;;;7.28;3.00;;;15.80;99.90;;;;;;5034490;28;20196;-73
2022/07/03 03:58:26;;;;;;;6.63;3.30;;;15.80;99.90;;;;;;5046539;28;20045;-72
2022/07/03 04:00:53;;;;;;;7.55;4.70;;;15.70;99.90;;;;;;5039759;28;20049;-71
2022/07/03 04:03:19;;;;;;;7.82;4.70;;;15.70;99.90;;;;;;5054794;28;20507;-70
2022/07/03 04:05:44;;;;;;;8.13;4.68;;;15.70;99.90;;;;;;5036214;28;20073;-71
2022/07/03 04:08:10;;;;;;;7.43;4.90;;;15.70;99.90;;;;;;5042711;28;20041;-70
2022/07/03 04:10:36;;;;;;;10.85;5.72;;;15.80;99.90;;;;;;5021881;28;20053;-70
2022/07/03 04:13:02;;;;;;;9.32;4.80;;;15.80;99.90;;;;;;5007350;28;20083;-70
2022/07/03 04:15:27;;;;;;;7.38;5.07;;;15.80;99.90;;;;;;5041382;28;20543;-69
2022/07/03 04:17:53;;;;;;;7.68;5.10;;;15.90;99.90;;;;;;5053452;28;20060;-70
2022/07/03 04:20:19;;;;;;;7.50;4.53;;;15.90;99.90;;;;;;5042144;28;20054;-70
2022/07/03 04:22:44;;;;;;;7.18;4.75;;;16.00;99.90;;;;;;5036346;28;20119;-70
2022/07/03 04:25:10;;;;;;;7.97;5.30;;;16.00;99.90;;;;;;5053481;28;20041;-70
2022/07/03 04:27:36;;;;;;;7.18;5.05;;;16.00;99.90;;;;;;5036905;28;20103;-71
2022/07/03 04:30:01;;;;;;;8.93;5.80;;;16.10;99.90;;;;;;5034067;28;20052;-72
2022/07/03 04:32:27;;;;;;;9.77;5.50;;;16.20;99.90;;;;;;5030384;28;20049;-72
2022/07/03 04:34:53;;;;;;;9.40;5.88;;;16.20;99.90;;;;;;5028279;28;20068;-70
2022/07/03 04:37:18;;;;;;;10.25;5.18;;;16.30;99.90;;;;;;5036056;28;20057;-71
2022/07/03 04:39:44;;;;;;;9.88;5.93;;;16.30;99.90;;;;;;5029901;28;20464;-71
2022/07/03 04:42:10;;;;;;;9.20;5.10;;;16.40;99.90;;;;;;5033272;28;20045;-70
2022/07/03 04:44:35;;;;;;;9.32;5.72;;;16.40;99.90;;;;;;5033437;28;20052;-70
2022/07/03 04:47:01;;;;;;;8.18;5.57;;;16.50;99.90;;;;;;5030157;28;20049;-70
2022/07/03 04:49:27;;;;;;;7.68;5.53;;;16.50;99.90;;;;;;5041979;28;20053;-70
2022/07/03 04:51:53;;;;;;;8.13;5.75;;;16.60;99.90;;;;;;5052303;28;20044;-70
2022/07/03 04:54:19;;;;;;;8.07;5.60;;;16.70;99.90;;;;;;5053053;28;20135;-70
2022/07/03 04:56:44;;;;;;;8.70;5.38;;;16.70;99.90;;;;;;5039874;28;20133;-73
2022/07/03 04:59:10;;;;;;;8.00;5.50;;;16.80;99.90;;;;;;5037073;28;20118;-70
2022/07/03 05:01:36;;;;;;;8.90;5.60;;;16.40;99.90;;;;;;5042184;28;20129;-72
2022/07/03 05:04:01;;;;;;;9.25;5.50;;;16.80;99.90;;;;;;5047188;28;20047;-72
2022/07/03 05:06:27;;;;;;;7.57;5.43;;;16.70;99.90;;;;;;5034092;28;20049;-70
2022/07/03 05:08:53;;;;;;;8.63;5.63;;;16.70;99.90;;;;;;5032312;28;20048;-70
2022/07/03 05:11:18;;;;;;;7.43;5.60;;;16.60;99.90;;;;;;5034078;28;20115;-70
2022/07/03 05:13:44;;;;;;;9.60;5.50;;;16.70;99.90;;;;;;5032068;28;20468;-70
2022/07/03 05:16:10;;;;;;;8.23;5.50;;;16.60;99.90;;;;;;5033678;28;20084;-70
2022/07/03 05:18:35;;;;;;;10.18;6.00;;;16.60;99.90;;;;;;5033334;28;20038;-70
2022/07/03 05:21:02;;;;;;;8.20;6.13;;;16.60;99.90;;;;;;5029416;28;20073;-70
2022/07/03 05:23:28;;;;;;;8.05;5.93;;;16.50;99.90;;;;;;5022012;28;20488;-71
2022/07/03 05:25:55;;;;;;;8.98;5.45;;;16.60;99.90;;;;;;5033216;28;20046;-70
2022/07/03 05:28:21;;;;;;;9.98;6.40;;;16.60;99.90;;;;;;5028270;28;20053;-71
2022/07/03 05:30:46;;;;;;;9.52;5.43;;;16.60;99.90;;;;;;5038858;28;20045;-71
2022/07/03 05:33:12;;;;;;;9.63;5.57;;;16.70;99.90;;;;;;5035514;28;20049;-71
2022/07/03 05:35:38;;;;;;;7.30;5.43;;;17.00;99.90;;;;;;5035861;28;20087;-71
2022/07/03 05:38:03;;;;;;;7.63;4.85;;;17.40;99.90;;;;;;5032534;28;20554;-70
2022/07/03 05:40:29;;;;;;;7.70;4.95;;;18.20;99.90;;;;;;5046729;28;20042;-71
2022/07/03 05:42:55;;;;;;;6.82;4.40;;;18.70;99.90;;;;;;5031503;28;20392;-70
2022/07/03 05:45:21;;;;;;;7.00;4.20;;;19.60;99.90;;;;;;5031558;28;20603;-70
2022/07/03 05:47:46;;;;;;;6.68;3.90;;;20.60;99.90;;;;;;5032188;28;20057;-70
2022/07/03 05:50:12;;;;;;;6.70;3.50;;;21.30;99.90;;;;;;5014682;28;20046;-70
2022/07/03 05:52:38;;;;;;;7.45;3.88;;;22.00;99.90;;;;;;5032053;28;20052;-70
2022/07/03 05:55:04;;;;;;;5.93;3.33;;;22.80;99.90;;;;;;5046495;28;20041;-70
2022/07/03 05:57:30;;;;;;;7.78;3.22;;;23.00;99.90;;;;;;5036376;28;20395;-70
2022/07/03 05:59:56;;;;;;;6.47;3.38;;;23.80;99.20;;;;;;5041428;28;20041;-70
2022/07/03 06:02:22;;;;;;;6.60;3.20;;;23.90;97.90;;;;;;5013464;28;20053;-71
2022/07/03 06:04:47;;;;;;;7.47;3.40;;;24.30;97.00;;;;;;5033451;28;20059;-70
2022/07/03 06:07:13;;;;;;;6.03;3.00;;;24.70;94.50;;;;;;5044740;28;20077;-69
2022/07/03 06:09:39;;;;;;;6.88;2.70;;;24.70;93.20;;;;;;5032023;28;20049;-70
2022/07/03 06:12:05;;;;;;;7.00;3.03;;;25.70;91.90;;;;;;5032527;28;20041;-74
2022/07/03 06:14:30;;;;;;;7.18;3.03;;;26.00;90.20;;;;;;5033757;28;20114;-70
2022/07/03 06:16:56;;;;;;;8.43;3.00;;;26.10;87.70;;;;;;5051547;28;20049;-71
2022/07/03 06:19:22;;;;;;;7.05;2.58;;;25.90;84.20;;;;;;5033161;28;20050;-70
2022/07/03 06:21:47;;;;;;;6.85;2.70;;;26.40;86.40;;;;;;5042084;28;20041;-70
2022/07/03 06:24:13;;;;;;;8.50;2.53;;;26.80;84.90;;;;;;5036832;28;20132;-71
2022/07/03 06:26:39;;;;;;;5.70;2.30;;;27.30;80.60;;;;;;5033001;28;20106;-71
2022/07/03 06:29:04;;;;;;;6.18;2.15;;;27.20;77.40;;;;;;5038571;28;20049;-70
2022/07/03 06:31:31;;;;;;;6.28;2.33;;;26.70;74.90;;;;;;5043885;28;20472;-70
2022/07/03 06:33:57;;;;;;;5.93;2.10;;;26.50;74.20;;;;;;5047571;28;20050;-73
2022/07/03 06:36:23;;;;;;;5.15;2.20;;;26.50;74.00;;;;;;5041004;28;20048;-70
2022/07/03 06:38:49;;;;;;;5.65;1.95;;;26.90;75.20;;;;;;5031162;28;20195;-71
2022/07/03 06:41:14;;;;;;;5.90;2.00;;;26.80;73.10;;;;;;5032785;28;20111;-70
2022/07/03 06:43:40;;;;;;;6.72;2.08;;;26.90;72.70;;;;;;5031262;28;20049;-71
2022/07/03 06:46:06;;;;;;;5.65;1.83;;;26.90;72.20;;;;;;5040607;28;20049;-70
2022/07/03 06:48:32;;;;;;;5.60;1.85;;;27.20;69.80;;;;;;5051643;28;20044;-70
2022/07/03 06:50:58;;;;;;;7.13;1.80;;;26.80;69.50;;;;;;5043623;28;20053;-70
2022/07/03 06:53:24;;;;;;;5.13;1.70;;;27.10;68.90;;;;;;5031255;28;20128;-69
2022/07/03 06:55:49;;;;;;;5.10;1.48;;;27.40;68.20;;;;;;5031150;28;20424;-70
2022/07/03 06:58:15;;;;;;;4.90;1.50;;;27.30;65.40;;;;;;5030394;28;20129;-71
2022/07/03 07:00:41;;;;;;;3.72;1.40;;;27.30;65.50;;;;;;5045326;28;20096;-70
2022/07/03 07:03:06;;;;;;;5.20;1.50;;;27.30;63.40;;;;;;5031512;28;20029;-71
2022/07/03 07:05:32;;;;;;;4.78;1.40;;;27.00;64.10;;;;;;5061691;28;20084;-70
2022/07/03 07:07:58;;;;;;;5.50;1.40;;;27.20;64.00;;;;;;5031795;28;20111;-73
2022/07/03 07:10:23;;;;;;;5.20;1.30;;;27.50;63.60;;;;;;5061361;28;20053;-71
2022/07/03 07:12:49;;;;;;;4.53;1.20;;;27.40;63.00;;;;;;5047091;28;20075;-71
2022/07/03 07:15:15;;;;;;;4.05;1.20;;;27.10;61.60;;;;;;5035806;28;20064;-70
2022/07/03 07:17:40;;;;;;;4.65;1.30;;;27.10;65.40;;;;;;5034638;28;20507;-70
2022/07/03 07:20:07;;;;;;;4.22;1.20;;;27.10;65.20;;;;;;5044170;28;20502;-69
2022/07/03 07:22:32;;;;;;;5.72;1.17;;;27.40;63.90;;;;;;5026457;28;20045;-70
2022/07/03 07:24:58;;;;;;;3.90;1.20;;;27.60;63.60;;;;;;5034908;28;20048;-71
2022/07/03 07:27:24;;;;;;;5.10;1.35;;;27.50;63.10;;;;;;5047937;28;20052;-70
2022/07/03 07:29:49;;;;;;;4.03;1.30;;;27.80;63.10;;;;;;5035345;28;20053;-69
2022/07/03 07:32:15;;;;;;;6.30;1.50;;;27.60;61.80;;;;;;5034791;28;20164;-70
2022/07/03 07:34:41;;;;;;;4.57;1.33;;;27.50;62.60;;;;;;5035095;28;20115;-72
2022/07/03 07:37:07;;;;;;;5.97;1.50;;;27.70;62.80;;;;;;5045182;28;20120;-71
2022/07/03 07:39:33;;;;;;;5.05;1.40;;;27.70;62.20;;;;;;5047313;28;20128;-70
2022/07/03 07:41:59;;;;;;;5.35;1.42;;;27.60;62.50;;;;;;5050035;28;20132;-72
2022/07/03 07:44:25;;;;;;;5.28;1.70;;;28.00;61.80;;;;;;5034790;28;20052;-69
2022/07/03 07:46:50;;;;;;;5.38;1.58;;;28.00;61.60;;;;;;5032830;28;20044;-70
2022/07/03 07:49:16;;;;;;;5.47;1.42;;;28.10;61.90;;;;;;5054553;28;20048;-71
2022/07/03 07:51:42;;;;;;;4.45;1.42;;;27.90;60.90;;;;;;5055321;28;20037;-71
2022/07/03 07:54:07;;;;;;;5.18;1.50;;;28.00;61.70;;;;;;5034014;28;20054;-71
2022/07/03 07:56:33;;;;;;;5.72;1.60;;;28.00;60.60;;;;;;5035384;28;20052;-71
2022/07/03 07:59:00;;;;;;;5.50;1.58;;;27.80;59.80;;;;;;5036433;28;20077;-73
2022/07/03 08:06:54;;;;;;;6.43;1.60;;;28.10;59.60;;;;;;5047668;28;20127;-72
2022/07/03 08:09:19;;;;;;;5.50;1.70;;;27.50;60.90;;;;;;5036460;28;20476;-71
2022/07/03 08:11:45;;;;;;;4.68;1.50;;;27.50;60.90;;;;;;5035367;28;20050;-70
2022/07/03 08:14:11;;;;;;;6.07;1.60;;;27.70;61.40;;;;;;5033596;28;20136;-71
2022/07/03 08:16:40;;;;;;;5.45;1.70;;;27.40;62.40;;;;;;5042838;28;20092;-70
2022/07/03 08:19:07;;;;;;;5.88;1.77;;;27.40;61.30;;;;;;5033037;28;20053;-70
2022/07/03 08:21:32;;;;;;;4.43;1.48;;;27.70;62.20;;;;;;5035176;28;20042;-70
2022/07/03 08:23:58;;;;;;;4.65;1.70;;;27.70;61.70;;;;;;5047021;28;20045;-71
2022/07/03 08:26:24;;;;;;;5.47;1.65;;;28.00;60.60;;;;;;5048902;28;20065;-70
2022/07/03 08:28:49;;;;;;;4.63;1.52;;;27.90;60.80;;;;;;5033544;28;20056;-70
2022/07/03 08:31:15;;;;;;;5.20;1.60;;;28.10;61.30;;;;;;5042753;28;20128;-71
2022/07/03 08:33:41;;;;;;;4.88;1.40;;;28.20;58.60;;;;;;5037895;28;20111;-69
2022/07/03 08:36:06;;;;;;;5.70;1.50;;;28.30;59.70;;;;;;5040486;28;20051;-71
2022/07/03 08:38:34;;;;;;;6.60;1.60;;;28.60;60.90;;;;;;5035860;28;20053;-72
2022/07/03 08:41:02;;;;;;;5.03;1.50;;;28.80;60.70;;;;;;5034272;28;20042;-71
2022/07/03 08:43:28;;;;;;;5.45;1.75;;;28.80;60.80;;;;;;5062946;28;20496;-73
2022/07/03 08:45:55;;;;;;;4.97;1.40;;;28.80;58.80;;;;;;5037066;28;20052;-72
2022/07/03 08:48:22;;;;;;;4.55;1.50;;;28.80;60.30;;;;;;5039796;28;20049;-71
2022/07/03 08:50:50;;;;;;;6.50;1.75;;;28.90;60.50;;;;;;5033181;28;20049;-71
2022/07/03 08:53:17;;;;;;;4.93;1.70;;;28.80;60.60;;;;;;5045500;28;20061;-71
2022/07/03 08:55:43;;;;;;;7.38;2.00;;;28.80;60.20;;;;;;5052449;28;20130;-70
2022/07/03 08:58:12;;;;;;;4.40;1.50;;;28.50;60.60;;;;;;5052108;28;20488;-71
2022/07/03 09:00:38;;;;;;;5.13;1.80;;;28.00;60.50;;;;;;5052643;28;20075;-72
2022/07/03 09:03:10;;;;;;;5.05;1.42;;;27.80;60.80;;;;;;5044668;28;20392;-72
2022/07/03 09:05:37;;;;;;;5.45;2.00;;;27.80;62.40;;;;;;5032479;28;20053;-71
2022/07/03 09:08:05;;;;;;;7.25;2.00;;;27.60;60.90;;;;;;5040524;28;20083;-71
2022/07/03 09:10:31;;;;;;;5.60;1.80;;;27.60;61.80;;;;;;5051993;28;20049;-71
2022/07/03 09:12:57;;;;;;;5.60;1.83;;;27.50;63.50;;;;;;5015475;28;20056;-70
2022/07/03 09:15:23;;;;;;;5.18;2.03;;;27.60;63.20;;;;;;5045435;28;20143;-72
2022/07/03 09:18:00;;;;;;;6.18;1.98;;;27.70;63.80;;;;;;5038961;28;20136;-71
2022/07/03 09:20:34;;;;;;;4.90;1.75;;;27.80;63.50;;;;;;5023806;28;20050;-72
2022/07/03 09:23:20;;;;;;;6.90;1.70;;;27.90;64.10;;;;;;5031981;28;20125;-71
2022/07/03 09:26:03;;;;;;;4.20;1.48;;;27.90;61.50;;;;;;5046491;28;20052;-74
2022/07/03 09:28:45;;;;;;;5.53;1.70;;;27.80;61.70;;;;;;5039763;28;20063;-71
2022/07/03 09:31:16;;;;;;;4.85;1.50;;;27.90;60.00;;;;;;5032457;28;20051;-70
2022/07/03 09:34:03;;;;;;;5.90;1.80;;;27.60;59.30;;;;;;5047447;28;20056;-72
2022/07/03 09:36:50;;;;;;;5.65;1.80;;;27.20;61.30;;;;;;5052096;28;20079;-71
2022/07/03 09:39:23;;;;;;;5.13;1.65;;;27.00;64.20;;;;;;5037299;28;20068;-71
2022/07/03 09:42:01;;;;;;;6.00;1.80;;;26.90;64.50;;;;;;5040878;28;20132;-71
2022/07/03 09:44:37;;;;;;;3.90;1.50;;;27.10;64.70;;;;;;5042740;28;20052;-72
2022/07/03 09:47:09;;;;;;;6.15;1.88;;;27.20;65.10;;;;;;5037367;28;20495;-75
2022/07/03 09:49:46;;;;;;;;;;;27.20;64.70;;;;;;5037876;28;20088;-73
2022/07/03 09:52:31;;;;;;;5.45;1.50;;;26.90;64.70;;;;;;5031734;28;19947;-71
2022/07/03 09:55:13;;;;;;;5.10;1.70;;;26.50;65.50;;;;;;5045625;28;20128;-71
2022/07/03 09:57:43;;;;;;;5.53;1.50;;;26.30;65.80;;;;;;5037565;28;20091;-72
2022/07/03 10:00:23;;;;;;;5.80;1.50;;;26.60;66.80;;;;;;5038900;28;20084;-71
2022/07/03 10:03:03;;;;;;;6.93;1.65;;;26.70;65.50;;;;;;5028710;28;20052;-71
2022/07/03 10:05:49;;;;;;;4.88;1.40;;;26.70;64.70;;;;;;5036972;28;20069;-69
2022/07/03 10:08:16;;;;;;;5.75;1.20;;;26.30;62.30;;;;;;5037746;28;20095;-69
2022/07/03 10:10:47;;;;;;;4.68;1.30;;;26.40;65.10;;;;;;5049663;28;20041;-70
2022/07/03 10:13:14;;;;;;;4.15;1.20;;;26.70;65.10;;;;;;5039243;28;20055;-70
2022/07/03 10:15:40;;;;;;;5.07;1.27;;;27.00;63.50;;;;;;5040304;28;20415;-69
2022/07/03 10:18:08;;;;;;;4.75;1.20;;;27.30;65.60;;;;;;5031051;28;20082;-69
2022/07/03 10:20:44;;;;;;;3.72;1.10;;;27.50;63.60;;;;;;5031839;28;20107;-68
2022/07/03 10:23:10;;;;;;;3.75;1.20;;;27.70;64.40;;;;;;5041190;28;20511;-68
2022/07/03 10:25:40;;;;;;;4.20;1.10;;;27.80;62.40;;;;;;5024522;28;20129;-69
2022/07/03 10:28:06;;;;;;;4.63;1.00;;;28.00;60.10;;;;;;5044067;28;20084;-69
2022/07/03 10:30:34;;;;;;;4.55;1.20;;;28.10;59.50;;;;;;5032721;28;20130;-68
2022/07/03 10:33:00;;;;;;;3.80;1.20;;;27.70;57.90;;;;;;5041112;28;20552;-68
2022/07/03 10:35:32;;;;;;;4.93;1.20;;;27.30;60.60;;;;;;5035326;28;20403;-69
2022/07/03 10:38:05;;;;;;;5.60;1.10;;;27.30;61.80;;;;;;5032693;28;20049;-69
2022/07/03 10:46:27;;;;;;;3.70;1.20;;;27.60;59.80;;;;;;5044859;28;20052;-68
2022/07/03 10:48:58;;;;;;;5.72;1.30;;;27.70;60.50;;;;;;5038791;28;20464;-69
2022/07/03 10:51:24;;;;;;;3.97;1.08;;;27.60;58.50;;;;;;5037929;28;20057;-69
2022/07/03 10:54:10;;;;;;;4.63;1.20;;;27.80;58.80;;;;;;5037608;28;20076;-70
2022/07/03 10:56:59;;;;;;;4.38;1.05;;;27.80;59.30;;;;;;5037959;28;20072;-68
2022/07/03 10:59:37;;;;;;;3.35;1.10;;;27.90;60.30;;;;;;5044094;28;20060;-68
2022/07/03 11:02:34;;;;;;;3.50;1.00;;;28.10;59.40;;;;;;5044353;28;20433;-73
2022/07/03 11:05:01;;;;;;;4.50;1.10;;;28.10;57.50;;;;;;5047718;28;20052;-70
2022/07/03 11:07:50;;;;;;;3.72;1.10;;;27.90;57.50;;;;;;5038070;28;20056;-68
2022/07/03 11:10:19;;;;;;;3.97;1.00;;;28.00;55.90;;;;;;5021221;28;20065;-69
2022/07/03 11:12:57;;;;;;;3.72;0.90;;;28.20;56.30;;;;;;5042317;28;20033;-69
2022/07/03 11:15:44;;;;;;;3.53;1.05;;;28.30;56.90;;;;;;5057407;28;20132;-69
2022/07/03 11:18:18;;;;;;;5.63;1.00;;;28.20;52.00;;;;;;5044845;28;20479;-68
2022/07/03 11:20:43;;;;;;;5.10;1.00;;;27.90;54.30;;;;;;5044044;28;20080;-69
2022/07/03 11:23:27;;;;;;;3.53;0.95;;;28.10;55.70;;;;;;5038758;28;20088;-71
2022/07/03 11:25:58;;;;;;;4.32;1.00;;;28.40;55.50;;;;;;5052549;28;20041;-68
2022/07/03 11:28:33;;;;;;;4.50;1.00;;;28.20;54.00;;;;;;5036878;28;20465;-69
2022/07/03 11:31:13;;;;;;;3.38;0.90;;;28.10;52.80;;;;;;5038433;28;20492;-69
2022/07/03 11:33:42;;;;;;;4.57;1.00;;;28.10;54.50;;;;;;5038016;28;20103;-69
2022/07/03 11:36:32;;;;;;;4.13;1.00;;;27.90;55.30;;;;;;5044792;28;20040;-68
2022/07/03 11:38:57;;;;;;;4.45;1.00;;;28.10;55.80;;;;;;5034367;28;20049;-68
2022/07/03 11:41:25;;;;;;;3.60;1.10;;;27.90;56.40;;;;;;5038583;28;20128;-68
2022/07/03 11:43:52;;;;;;;5.07;1.08;;;27.90;56.00;;;;;;5036072;28;20049;-68
2022/07/03 11:46:23;;;;;;;2.65;1.00;;;27.50;54.40;;;;;;5048914;28;20111;-68
2022/07/03 11:48:49;;;;;;;3.53;1.00;;;27.40;55.40;;;;;;5036799;28;20137;-70
2022/07/03 11:51:16;;;;;;;3.58;0.90;;;27.00;54.40;;;;;;5037339;28;20084;-70
2022/07/03 11:53:42;;;;;;;3.42;0.90;;;27.00;56.20;;;;;;5037771;28;20092;-68
2022/07/03 11:56:15;;;;;;;4.22;1.10;;;27.00;57.20;;;;;;5037298;28;20487;-69
2022/07/03 11:58:46;;;;;;;3.78;1.00;;;26.90;58.20;;;;;;5052210;28;20045;-67
2022/07/03 12:01:36;;;;;;;3.63;1.08;;;26.80;56.60;;;;;;5053812;28;20056;-69
2022/07/03 12:04:03;;;;;;;3.97;1.08;;;27.10;59.30;;;;;;5037259;28;20473;-70
2022/07/03 12:06:44;;;;;;;4.22;1.05;;;27.20;58.20;;;;;;5034058;28;20054;-67
2022/07/03 12:09:15;;;;;;;4.40;1.10;;;27.50;57.90;;;;;;5030698;28;20128;-68
2022/07/03 12:11:41;;;;;;;3.55;0.95;;;27.50;56.40;;;;;;5034003;28;20058;-69
2022/07/03 12:14:06;;;;;;;5.40;1.10;;;27.60;58.20;;;;;;5032653;28;20060;-68
2022/07/03 12:16:33;;;;;;;3.70;1.00;;;27.20;55.50;;;;;;5035096;28;20057;-69
2022/07/03 12:19:05;;;;;;;3.60;1.08;;;27.10;56.40;;;;;;5064039;28;20088;-68
2022/07/03 12:21:39;;;;;;;5.53;1.10;;;27.10;56.60;;;;;;5033890;28;20049;-68
2022/07/03 12:24:13;;;;;;;3.78;1.00;;;27.20;57.50;;;;;;5032936;28;20053;-69
2022/07/03 12:26:39;;;;;;;5.47;1.10;;;27.10;57.30;;;;;;5046383;28;20057;-69
2022/07/03 12:29:12;;;;;;;5.18;1.02;;;27.30;58.30;;;;;;5041791;28;20045;-69
2022/07/03 12:31:46;;;;;;;3.05;0.90;;;27.40;59.60;;;;;;5033862;28;20152;-68
2022/07/03 12:34:13;;;;;;;3.30;0.73;;;27.60;56.10;;;;;;5032726;28;20091;-67
2022/07/03 12:36:40;;;;;;;3.38;1.00;;;27.50;57.80;;;;;;5033082;28;20057;-68
2022/07/03 12:39:06;;;;;;;5.40;1.05;;;27.60;56.20;;;;;;5026467;28;20052;-68
2022/07/03 12:41:32;;;;;;;5.65;1.00;;;27.70;57.40;;;;;;5047493;28;20049;-70
2022/07/03 12:43:59;;;;;;;2.97;0.85;;;27.60;55.50;;;;;;5051939;28;20392;-67
2022/07/03 12:46:34;;;;;;;3.50;0.90;;;27.70;56.80;;;;;;5053808;28;20089;-68
2022/07/03 12:49:11;;;;;;;3.42;0.93;;;27.80;56.10;;;;;;5036666;28;20047;-68
2022/07/03 12:51:45;;;;;;;2.95;0.82;;;27.80;54.40;;;;;;5052919;28;20053;-67
2022/07/03 12:54:33;;;;;;;3.55;0.88;;;27.70;55.60;;;;;;5039179;28;20047;-68
2022/07/03 13:00:05;;;;;;;3.83;0.90;;;27.80;52.40;;;;;;5045785;28;20040;-70
2022/07/03 13:02:32;;;;;;;4.22;0.85;;;27.90;52.90;;;;;;5039332;28;20041;-68
2022/07/03 13:05:12;;;;;;;2.38;0.77;;;28.00;53.80;;;;;;5053429;28;20052;-70
2022/07/03 13:07:40;;;;;;;2.30;0.70;;;28.00;53.20;;;;;;5037232;28;20045;-68
2022/07/03 13:10:06;;;;;;;3.17;0.90;;;27.90;52.60;;;;;;5032842;28;20128;-70
2022/07/03 13:12:32;;;;;;;4.00;0.82;;;28.10;53.00;;;;;;5049872;28;20071;-68
2022/07/03 13:14:59;;;;;;;3.45;0.85;;;27.80;51.80;;;;;;5053878;28;20048;-68
2022/07/03 13:17:52;;;;;;;3.55;0.82;;;27.40;51.70;;;;;;5049002;28;20439;-68